sensor_id;sensor_type;location;lat;lon;timestamp;P1;durP1;ratioP1;P2;durP2;ratioP2
45893;SDS011;31603;51.148;16.932;2023-04-07T00:00:16;34.55;;;15.05;;
45893;SDS011;31603;51.148;16.932;2023-04-07T00:02:43;27.30;;;14.73;;
45893;SDS011;31603;51.148;16.932;2023-04-07T00:05:11;24.02;;;13.77;;
45893;SDS011;31603;51.148;16.932;2023-04-07T00:07:38;25.25;;;14.15;;
45893;SDS011;31603;51.148;16.932;2023-04-07T00:10:05;25.33;;;14.50;;
45893;SDS011;31603;51.148;16.932;2023-04-07T00:12:32;22.70;;;13.40;;
45893;SDS011;31603;51.148;16.932;2023-04-07T00:14:58;24.38;;;13.60;;
45893;SDS011;31603;51.148;16.932;2023-04-07T00:17:25;24.73;;;14.55;;
45893;SDS011;31603;51.148;16.932;2023-04-07T00:19:53;21.88;;;13.13;;
45893;SDS011;31603;51.148;16.932;2023-04-07T00:22:20;24.75;;;13.48;;
45893;SDS011;31603;51.148;16.932;2023-04-07T00:24:47;22.30;;;14.32;;
45893;SDS011;31603;51.148;16.932;2023-04-07T00:27:14;23.17;;;12.88;;
45893;SDS011;31603;51.148;16.932;2023-04-07T00:29:41;21.05;;;13.80;;
45893;SDS011;31603;51.148;16.932;2023-04-07T00:32:10;28.27;;;15.95;;
45893;SDS011;31603;51.148;16.932;2023-04-07T00:34:36;24.58;;;13.45;;
45893;SDS011;31603;51.148;16.932;2023-04-07T00:37:03;22.95;;;14.07;;
45893;SDS011;31603;51.148;16.932;2023-04-07T00:39:31;26.15;;;15.48;;
45893;SDS011;31603;51.148;16.932;2023-04-07T00:41:58;22.33;;;13.73;;
45893;SDS011;31603;51.148;16.932;2023-04-07T00:44:25;23.63;;;15.38;;
45893;SDS011;31603;51.148;16.932;2023-04-07T00:46:51;27.75;;;16.13;;
45893;SDS011;31603;51.148;16.932;2023-04-07T00:49:17;22.00;;;14.52;;
45893;SDS011;31603;51.148;16.932;2023-04-07T00:51:44;26.90;;;15.77;;
45893;SDS011;31603;51.148;16.932;2023-04-07T00:54:10;25.00;;;14.13;;
45893;SDS011;31603;51.148;16.932;2023-04-07T00:56:37;24.67;;;15.05;;
45893;SDS011;31603;51.148;16.932;2023-04-07T00:59:05;25.73;;;15.15;;
45893;SDS011;31603;51.148;16.932;2023-04-07T01:01:31;26.30;;;14.77;;
45893;SDS011;31603;51.148;16.932;2023-04-07T01:04:01;25.75;;;14.98;;
45893;SDS011;31603;51.148;16.932;2023-04-07T01:06:29;26.40;;;14.55;;
45893;SDS011;31603;51.148;16.932;2023-04-07T01:08:58;27.42;;;15.27;;
45893;SDS011;31603;51.148;16.932;2023-04-07T01:11:27;24.48;;;14.73;;
45893;SDS011;31603;51.148;16.932;2023-04-07T01:13:56;26.20;;;14.68;;
45893;SDS011;31603;51.148;16.932;2023-04-07T01:16:26;26.70;;;14.85;;
45893;SDS011;31603;51.148;16.932;2023-04-07T01:18:53;22.42;;;14.32;;
45893;SDS011;31603;51.148;16.932;2023-04-07T01:21:20;24.70;;;14.48;;
45893;SDS011;31603;51.148;16.932;2023-04-07T01:23:50;26.42;;;16.38;;
45893;SDS011;31603;51.148;16.932;2023-04-07T01:26:18;25.85;;;15.32;;
45893;SDS011;31603;51.148;16.932;2023-04-07T01:29:06;25.60;;;15.05;;
45893;SDS011;31603;51.148;16.932;2023-04-07T01:31:38;29.10;;;17.15;;
45893;SDS011;31603;51.148;16.932;2023-04-07T01:34:05;26.02;;;14.35;;
45893;SDS011;31603;51.148;16.932;2023-04-07T01:36:32;31.05;;;16.52;;
45893;SDS011;31603;51.148;16.932;2023-04-07T01:39:00;31.83;;;17.98;;
45893;SDS011;31603;51.148;16.932;2023-04-07T01:41:26;24.70;;;15.50;;
45893;SDS011;31603;51.148;16.932;2023-04-07T01:43:53;26.45;;;15.88;;
45893;SDS011;31603;51.148;16.932;2023-04-07T01:46:20;26.20;;;16.88;;
45893;SDS011;31603;51.148;16.932;2023-04-07T01:48:48;30.27;;;17.02;;
45893;SDS011;31603;51.148;16.932;2023-04-07T01:51:15;27.63;;;15.73;;
45893;SDS011;31603;51.148;16.932;2023-04-07T01:53:43;30.13;;;16.17;;
45893;SDS011;31603;51.148;16.932;2023-04-07T01:56:10;32.08;;;16.95;;
45893;SDS011;31603;51.148;16.932;2023-04-07T01:58:36;29.35;;;18.05;;
45893;SDS011;31603;51.148;16.932;2023-04-07T02:01:03;30.73;;;18.25;;
45893;SDS011;31603;51.148;16.932;2023-04-07T02:03:30;26.58;;;14.95;;
45893;SDS011;31603;51.148;16.932;2023-04-07T02:05:59;28.92;;;16.38;;
45893;SDS011;31603;51.148;16.932;2023-04-07T02:08:27;31.17;;;18.98;;
45893;SDS011;31603;51.148;16.932;2023-04-07T02:10:55;30.90;;;19.45;;
45893;SDS011;31603;51.148;16.932;2023-04-07T02:13:24;32.33;;;20.40;;
45893;SDS011;31603;51.148;16.932;2023-04-07T02:15:52;28.52;;;18.05;;
45893;SDS011;31603;51.148;16.932;2023-04-07T02:18:20;36.85;;;18.58;;
45893;SDS011;31603;51.148;16.932;2023-04-07T02:20:47;36.15;;;20.85;;
45893;SDS011;31603;51.148;16.932;2023-04-07T02:23:15;32.67;;;20.60;;
45893;SDS011;31603;51.148;16.932;2023-04-07T02:25:42;36.20;;;21.23;;
45893;SDS011;31603;51.148;16.932;2023-04-07T02:28:08;37.53;;;21.30;;
45893;SDS011;31603;51.148;16.932;2023-04-07T02:30:35;35.28;;;20.50;;
45893;SDS011;31603;51.148;16.932;2023-04-07T02:33:01;33.28;;;19.25;;
45893;SDS011;31603;51.148;16.932;2023-04-07T02:35:28;38.10;;;22.92;;
45893;SDS011;31603;51.148;16.932;2023-04-07T02:37:54;35.10;;;22.48;;
45893;SDS011;31603;51.148;16.932;2023-04-07T02:40:22;35.03;;;22.00;;
45893;SDS011;31603;51.148;16.932;2023-04-07T02:42:48;36.50;;;22.35;;
45893;SDS011;31603;51.148;16.932;2023-04-07T02:45:15;34.65;;;18.83;;
45893;SDS011;31603;51.148;16.932;2023-04-07T02:47:41;42.75;;;24.85;;
45893;SDS011;31603;51.148;16.932;2023-04-07T02:50:08;38.38;;;22.13;;
45893;SDS011;31603;51.148;16.932;2023-04-07T02:52:34;39.55;;;21.63;;
45893;SDS011;31603;51.148;16.932;2023-04-07T02:55:00;40.15;;;22.20;;
45893;SDS011;31603;51.148;16.932;2023-04-07T02:57:28;37.05;;;21.45;;
45893;SDS011;31603;51.148;16.932;2023-04-07T02:59:55;43.90;;;21.80;;
45893;SDS011;31603;51.148;16.932;2023-04-07T03:02:22;32.90;;;20.80;;
45893;SDS011;31603;51.148;16.932;2023-04-07T03:04:49;34.53;;;21.92;;
45893;SDS011;31603;51.148;16.932;2023-04-07T03:07:16;42.45;;;23.20;;
45893;SDS011;31603;51.148;16.932;2023-04-07T03:09:42;40.78;;;23.48;;
45893;SDS011;31603;51.148;16.932;2023-04-07T03:12:09;36.53;;;22.73;;
45893;SDS011;31603;51.148;16.932;2023-04-07T03:14:37;34.22;;;21.70;;
45893;SDS011;31603;51.148;16.932;2023-04-07T03:17:03;34.40;;;22.38;;
45893;SDS011;31603;51.148;16.932;2023-04-07T03:19:30;38.33;;;22.13;;
45893;SDS011;31603;51.148;16.932;2023-04-07T03:21:56;35.70;;;21.25;;
45893;SDS011;31603;51.148;16.932;2023-04-07T03:24:23;42.70;;;24.30;;
45893;SDS011;31603;51.148;16.932;2023-04-07T03:26:49;40.00;;;23.58;;
45893;SDS011;31603;51.148;16.932;2023-04-07T03:29:16;35.80;;;22.20;;
45893;SDS011;31603;51.148;16.932;2023-04-07T03:31:44;37.88;;;21.25;;
45893;SDS011;31603;51.148;16.932;2023-04-07T03:34:14;38.50;;;21.83;;
45893;SDS011;31603;51.148;16.932;2023-04-07T03:36:40;37.70;;;21.17;;
45893;SDS011;31603;51.148;16.932;2023-04-07T03:39:06;39.95;;;23.95;;
45893;SDS011;31603;51.148;16.932;2023-04-07T03:41:33;39.38;;;25.67;;
45893;SDS011;31603;51.148;16.932;2023-04-07T03:43:59;41.83;;;23.30;;
45893;SDS011;31603;51.148;16.932;2023-04-07T03:46:25;41.88;;;24.75;;
45893;SDS011;31603;51.148;16.932;2023-04-07T03:48:53;36.55;;;23.15;;
45893;SDS011;31603;51.148;16.932;2023-04-07T03:51:20;40.72;;;22.80;;
45893;SDS011;31603;51.148;16.932;2023-04-07T03:53:47;37.20;;;20.00;;
45893;SDS011;31603;51.148;16.932;2023-04-07T03:56:14;44.03;;;24.65;;
45893;SDS011;31603;51.148;16.932;2023-04-07T03:58:41;39.75;;;23.63;;
45893;SDS011;31603;51.148;16.932;2023-04-07T04:01:08;41.83;;;23.77;;
45893;SDS011;31603;51.148;16.932;2023-04-07T04:03:34;40.42;;;23.38;;
45893;SDS011;31603;51.148;16.932;2023-04-07T04:06:02;42.70;;;26.48;;
45893;SDS011;31603;51.148;16.932;2023-04-07T04:08:29;52.15;;;26.08;;
45893;SDS011;31603;51.148;16.932;2023-04-07T04:10:56;44.97;;;24.98;;
45893;SDS011;31603;51.148;16.932;2023-04-07T04:13:26;50.13;;;25.80;;
45893;SDS011;31603;51.148;16.932;2023-04-07T04:16:06;44.72;;;25.25;;
45893;SDS011;31603;51.148;16.932;2023-04-07T04:18:33;46.50;;;28.45;;
45893;SDS011;31603;51.148;16.932;2023-04-07T04:20:59;52.60;;;31.23;;
45893;SDS011;31603;51.148;16.932;2023-04-07T04:23:29;40.08;;;22.98;;
45893;SDS011;31603;51.148;16.932;2023-04-07T04:25:55;38.78;;;23.20;;
45893;SDS011;31603;51.148;16.932;2023-04-07T04:28:24;37.67;;;21.88;;
45893;SDS011;31603;51.148;16.932;2023-04-07T04:30:50;39.65;;;23.55;;
45893;SDS011;31603;51.148;16.932;2023-04-07T04:33:17;41.97;;;21.75;;
45893;SDS011;31603;51.148;16.932;2023-04-07T04:35:43;34.08;;;21.27;;
45893;SDS011;31603;51.148;16.932;2023-04-07T04:38:10;33.20;;;19.27;;
45893;SDS011;31603;51.148;16.932;2023-04-07T04:40:38;38.63;;;23.13;;
45893;SDS011;31603;51.148;16.932;2023-04-07T04:43:04;33.88;;;18.60;;
45893;SDS011;31603;51.148;16.932;2023-04-07T04:45:38;28.83;;;16.67;;
45893;SDS011;31603;51.148;16.932;2023-04-07T04:48:05;29.15;;;16.67;;
45893;SDS011;31603;51.148;16.932;2023-04-07T04:50:35;28.88;;;17.40;;
45893;SDS011;31603;51.148;16.932;2023-04-07T04:53:02;25.48;;;15.85;;
45893;SDS011;31603;51.148;16.932;2023-04-07T04:55:28;25.80;;;14.23;;
45893;SDS011;31603;51.148;16.932;2023-04-07T04:57:59;26.85;;;16.02;;
45893;SDS011;31603;51.148;16.932;2023-04-07T05:00:25;27.85;;;16.33;;
45893;SDS011;31603;51.148;16.932;2023-04-07T05:02:53;26.30;;;15.18;;
45893;SDS011;31603;51.148;16.932;2023-04-07T05:05:20;28.73;;;16.33;;
45893;SDS011;31603;51.148;16.932;2023-04-07T05:07:46;29.45;;;17.23;;
45893;SDS011;31603;51.148;16.932;2023-04-07T05:10:13;32.92;;;18.77;;
45893;SDS011;31603;51.148;16.932;2023-04-07T05:12:40;26.67;;;13.57;;
45893;SDS011;31603;51.148;16.932;2023-04-07T05:15:09;26.58;;;15.25;;
45893;SDS011;31603;51.148;16.932;2023-04-07T05:17:35;27.00;;;14.57;;
45893;SDS011;31603;51.148;16.932;2023-04-07T05:20:03;25.20;;;15.63;;
45893;SDS011;31603;51.148;16.932;2023-04-07T05:22:36;26.17;;;14.93;;
45893;SDS011;31603;51.148;16.932;2023-04-07T05:25:03;29.42;;;17.25;;
45893;SDS011;31603;51.148;16.932;2023-04-07T05:27:29;25.77;;;15.45;;
45893;SDS011;31603;51.148;16.932;2023-04-07T05:29:56;27.17;;;15.68;;
45893;SDS011;31603;51.148;16.932;2023-04-07T05:32:26;28.05;;;15.30;;
45893;SDS011;31603;51.148;16.932;2023-04-07T05:34:53;29.10;;;15.27;;
45893;SDS011;31603;51.148;16.932;2023-04-07T05:37:22;27.02;;;16.10;;
45893;SDS011;31603;51.148;16.932;2023-04-07T05:39:49;28.00;;;16.10;;
45893;SDS011;31603;51.148;16.932;2023-04-07T05:42:19;23.20;;;14.50;;
45893;SDS011;31603;51.148;16.932;2023-04-07T05:44:48;35.85;;;15.70;;
45893;SDS011;31603;51.148;16.932;2023-04-07T05:47:31;27.65;;;15.40;;
45893;SDS011;31603;51.148;16.932;2023-04-07T05:49:59;22.73;;;14.00;;
45893;SDS011;31603;51.148;16.932;2023-04-07T05:52:29;28.75;;;16.00;;
45893;SDS011;31603;51.148;16.932;2023-04-07T05:54:55;27.73;;;15.43;;
45893;SDS011;31603;51.148;16.932;2023-04-07T05:57:22;27.98;;;15.95;;
45893;SDS011;31603;51.148;16.932;2023-04-07T05:59:51;26.63;;;14.02;;
45893;SDS011;31603;51.148;16.932;2023-04-07T06:02:21;25.30;;;12.45;;
45893;SDS011;31603;51.148;16.932;2023-04-07T06:04:50;23.60;;;14.18;;
45893;SDS011;31603;51.148;16.932;2023-04-07T06:07:17;29.35;;;15.00;;
45893;SDS011;31603;51.148;16.932;2023-04-07T06:09:44;29.02;;;14.88;;
45893;SDS011;31603;51.148;16.932;2023-04-07T06:12:10;25.75;;;16.00;;
45893;SDS011;31603;51.148;16.932;2023-04-07T06:14:37;28.83;;;15.27;;
45893;SDS011;31603;51.148;16.932;2023-04-07T06:17:04;30.02;;;16.50;;
45893;SDS011;31603;51.148;16.932;2023-04-07T06:19:31;25.73;;;13.98;;
45893;SDS011;31603;51.148;16.932;2023-04-07T06:22:01;24.65;;;13.70;;
45893;SDS011;31603;51.148;16.932;2023-04-07T06:24:29;29.80;;;15.18;;
45893;SDS011;31603;51.148;16.932;2023-04-07T06:26:56;27.58;;;15.02;;
45893;SDS011;31603;51.148;16.932;2023-04-07T06:29:25;31.27;;;16.50;;
45893;SDS011;31603;51.148;16.932;2023-04-07T06:31:56;29.73;;;15.32;;
45893;SDS011;31603;51.148;16.932;2023-04-07T06:34:22;24.98;;;14.50;;
45893;SDS011;31603;51.148;16.932;2023-04-07T06:36:49;27.23;;;15.55;;
45893;SDS011;31603;51.148;16.932;2023-04-07T06:39:17;26.02;;;14.95;;
45893;SDS011;31603;51.148;16.932;2023-04-07T06:41:51;31.55;;;14.52;;
45893;SDS011;31603;51.148;16.932;2023-04-07T06:44:18;23.75;;;13.35;;
45893;SDS011;31603;51.148;16.932;2023-04-07T06:46:45;23.38;;;13.77;;
45893;SDS011;31603;51.148;16.932;2023-04-07T06:49:14;27.88;;;14.75;;
45893;SDS011;31603;51.148;16.932;2023-04-07T06:51:54;24.77;;;13.45;;
45893;SDS011;31603;51.148;16.932;2023-04-07T06:54:24;23.65;;;13.10;;
45893;SDS011;31603;51.148;16.932;2023-04-07T06:56:50;26.70;;;15.57;;
45893;SDS011;31603;51.148;16.932;2023-04-07T06:59:16;22.48;;;12.88;;
45893;SDS011;31603;51.148;16.932;2023-04-07T07:01:43;22.60;;;12.18;;
45893;SDS011;31603;51.148;16.932;2023-04-07T07:04:10;22.02;;;12.90;;
45893;SDS011;31603;51.148;16.932;2023-04-07T07:06:36;21.92;;;12.77;;
45893;SDS011;31603;51.148;16.932;2023-04-07T07:09:03;24.17;;;14.40;;
45893;SDS011;31603;51.148;16.932;2023-04-07T07:14:16;21.88;;;13.75;;
45893;SDS011;31603;51.148;16.932;2023-04-07T07:16:44;21.23;;;12.77;;
45893;SDS011;31603;51.148;16.932;2023-04-07T07:19:11;28.73;;;14.95;;
45893;SDS011;31603;51.148;16.932;2023-04-07T07:21:51;28.08;;;13.98;;
45893;SDS011;31603;51.148;16.932;2023-04-07T07:24:19;26.80;;;14.27;;
45893;SDS011;31603;51.148;16.932;2023-04-07T07:26:53;20.90;;;12.05;;
45893;SDS011;31603;51.148;16.932;2023-04-07T07:29:23;23.10;;;12.82;;
45893;SDS011;31603;51.148;16.932;2023-04-07T07:31:52;24.27;;;12.93;;
45893;SDS011;31603;51.148;16.932;2023-04-07T07:34:24;22.50;;;11.55;;
45893;SDS011;31603;51.148;16.932;2023-04-07T07:36:59;28.55;;;15.18;;
45893;SDS011;31603;51.148;16.932;2023-04-07T07:39:30;20.60;;;12.15;;
45893;SDS011;31603;51.148;16.932;2023-04-07T07:41:57;22.90;;;12.02;;
45893;SDS011;31603;51.148;16.932;2023-04-07T07:44:38;22.17;;;12.15;;
45893;SDS011;31603;51.148;16.932;2023-04-07T07:47:05;21.20;;;12.15;;
45893;SDS011;31603;51.148;16.932;2023-04-07T07:49:52;21.42;;;12.73;;
45893;SDS011;31603;51.148;16.932;2023-04-07T07:52:33;20.92;;;12.35;;
45893;SDS011;31603;51.148;16.932;2023-04-07T07:55:02;21.80;;;12.02;;
45893;SDS011;31603;51.148;16.932;2023-04-07T07:57:28;25.83;;;13.07;;
45893;SDS011;31603;51.148;16.932;2023-04-07T07:59:57;23.65;;;13.82;;
45893;SDS011;31603;51.148;16.932;2023-04-07T08:02:24;21.95;;;11.77;;
45893;SDS011;31603;51.148;16.932;2023-04-07T08:04:55;23.98;;;13.07;;
45893;SDS011;31603;51.148;16.932;2023-04-07T08:07:23;22.42;;;12.43;;
45893;SDS011;31603;51.148;16.932;2023-04-07T08:09:51;20.88;;;11.35;;
45893;SDS011;31603;51.148;16.932;2023-04-07T08:12:18;24.15;;;12.10;;
45893;SDS011;31603;51.148;16.932;2023-04-07T08:14:44;23.55;;;13.38;;
45893;SDS011;31603;51.148;16.932;2023-04-07T08:19:56;23.40;;;13.65;;
45893;SDS011;31603;51.148;16.932;2023-04-07T08:25:04;20.83;;;11.60;;
45893;SDS011;31603;51.148;16.932;2023-04-07T08:27:30;18.92;;;10.75;;
45893;SDS011;31603;51.148;16.932;2023-04-07T08:30:01;18.83;;;11.77;;
45893;SDS011;31603;51.148;16.932;2023-04-07T08:32:42;21.73;;;11.23;;
45893;SDS011;31603;51.148;16.932;2023-04-07T08:40:39;19.65;;;11.60;;
45893;SDS011;31603;51.148;16.932;2023-04-07T08:43:07;23.92;;;14.05;;
45893;SDS011;31603;51.148;16.932;2023-04-07T08:45:47;19.17;;;11.10;;
45893;SDS011;31603;51.148;16.932;2023-04-07T08:48:28;21.30;;;12.17;;
45893;SDS011;31603;51.148;16.932;2023-04-07T08:50:59;23.63;;;12.00;;
45893;SDS011;31603;51.148;16.932;2023-04-07T08:53:35;25.02;;;13.68;;
45893;SDS011;31603;51.148;16.932;2023-04-07T08:58:46;21.55;;;11.70;;
45893;SDS011;31603;51.148;16.932;2023-04-07T09:01:21;25.40;;;12.05;;
45893;SDS011;31603;51.148;16.932;2023-04-07T09:03:52;17.52;;;10.13;;
45893;SDS011;31603;51.148;16.932;2023-04-07T09:06:23;16.88;;;10.25;;
45893;SDS011;31603;51.148;16.932;2023-04-07T09:08:51;14.95;;;9.27;;
45893;SDS011;31603;51.148;16.932;2023-04-07T09:11:19;17.05;;;10.02;;
45893;SDS011;31603;51.148;16.932;2023-04-07T09:13:51;16.02;;;9.63;;
45893;SDS011;31603;51.148;16.932;2023-04-07T09:16:17;20.75;;;12.05;;
45893;SDS011;31603;51.148;16.932;2023-04-07T09:18:44;18.88;;;10.93;;
45893;SDS011;31603;51.148;16.932;2023-04-07T09:21:16;19.40;;;11.93;;
45893;SDS011;31603;51.148;16.932;2023-04-07T09:23:51;21.30;;;13.13;;
45893;SDS011;31603;51.148;16.932;2023-04-07T09:26:18;19.13;;;10.30;;
45893;SDS011;31603;51.148;16.932;2023-04-07T09:28:45;18.80;;;12.10;;
45893;SDS011;31603;51.148;16.932;2023-04-07T09:31:13;15.00;;;9.68;;
45893;SDS011;31603;51.148;16.932;2023-04-07T09:33:40;16.63;;;9.90;;
45893;SDS011;31603;51.148;16.932;2023-04-07T09:36:06;18.83;;;10.13;;
45893;SDS011;31603;51.148;16.932;2023-04-07T09:38:32;17.33;;;10.15;;
45893;SDS011;31603;51.148;16.932;2023-04-07T09:41:06;18.17;;;10.35;;
45893;SDS011;31603;51.148;16.932;2023-04-07T09:43:33;18.45;;;10.73;;
45893;SDS011;31603;51.148;16.932;2023-04-07T09:46:05;16.75;;;9.50;;
45893;SDS011;31603;51.148;16.932;2023-04-07T09:48:34;15.18;;;9.20;;
45893;SDS011;31603;51.148;16.932;2023-04-07T09:51:06;20.67;;;12.55;;
45893;SDS011;31603;51.148;16.932;2023-04-07T09:53:43;17.30;;;10.30;;
45893;SDS011;31603;51.148;16.932;2023-04-07T09:56:12;16.38;;;10.10;;
45893;SDS011;31603;51.148;16.932;2023-04-07T09:58:40;17.67;;;10.40;;
45893;SDS011;31603;51.148;16.932;2023-04-07T10:01:06;25.25;;;15.80;;
45893;SDS011;31603;51.148;16.932;2023-04-07T10:03:34;23.08;;;12.95;;
45893;SDS011;31603;51.148;16.932;2023-04-07T10:06:01;20.55;;;13.15;;
45893;SDS011;31603;51.148;16.932;2023-04-07T10:08:27;19.58;;;12.40;;
45893;SDS011;31603;51.148;16.932;2023-04-07T10:10:54;20.80;;;12.02;;
45893;SDS011;31603;51.148;16.932;2023-04-07T10:13:21;20.88;;;12.13;;
45893;SDS011;31603;51.148;16.932;2023-04-07T10:15:48;20.15;;;13.05;;
45893;SDS011;31603;51.148;16.932;2023-04-07T10:18:15;24.15;;;14.73;;
45893;SDS011;31603;51.148;16.932;2023-04-07T10:20:45;19.55;;;11.65;;
45893;SDS011;31603;51.148;16.932;2023-04-07T10:23:15;22.65;;;15.15;;
45893;SDS011;31603;51.148;16.932;2023-04-07T10:25:44;19.20;;;11.48;;
45893;SDS011;31603;51.148;16.932;2023-04-07T10:28:13;22.45;;;13.63;;
45893;SDS011;31603;51.148;16.932;2023-04-07T10:30:39;18.63;;;11.15;;
45893;SDS011;31603;51.148;16.932;2023-04-07T10:33:06;20.00;;;11.85;;
45893;SDS011;31603;51.148;16.932;2023-04-07T10:38:16;22.23;;;12.65;;
45893;SDS011;31603;51.148;16.932;2023-04-07T10:40:43;17.23;;;11.70;;
45893;SDS011;31603;51.148;16.932;2023-04-07T10:43:09;21.98;;;12.10;;
45893;SDS011;31603;51.148;16.932;2023-04-07T10:45:52;16.60;;;9.98;;
45893;SDS011;31603;51.148;16.932;2023-04-07T10:48:20;22.30;;;12.80;;
45893;SDS011;31603;51.148;16.932;2023-04-07T10:51:10;19.48;;;11.13;;
45893;SDS011;31603;51.148;16.932;2023-04-07T10:53:37;20.23;;;12.88;;
45893;SDS011;31603;51.148;16.932;2023-04-07T10:56:30;22.50;;;13.10;;
45893;SDS011;31603;51.148;16.932;2023-04-07T10:59:14;24.27;;;13.70;;
45893;SDS011;31603;51.148;16.932;2023-04-07T11:01:40;25.77;;;15.73;;
45893;SDS011;31603;51.148;16.932;2023-04-07T11:04:07;22.75;;;13.85;;
45893;SDS011;31603;51.148;16.932;2023-04-07T11:06:33;25.83;;;16.33;;
45893;SDS011;31603;51.148;16.932;2023-04-07T11:09:05;26.02;;;14.50;;
45893;SDS011;31603;51.148;16.932;2023-04-07T11:11:46;21.20;;;12.82;;
45893;SDS011;31603;51.148;16.932;2023-04-07T11:14:26;24.70;;;13.70;;
45893;SDS011;31603;51.148;16.932;2023-04-07T11:17:37;23.38;;;14.40;;
45893;SDS011;31603;51.148;16.932;2023-04-07T11:20:04;23.30;;;12.77;;
45893;SDS011;31603;51.148;16.932;2023-04-07T11:22:32;19.70;;;11.35;;
45893;SDS011;31603;51.148;16.932;2023-04-07T11:25:02;20.60;;;12.15;;
45893;SDS011;31603;51.148;16.932;2023-04-07T11:27:29;25.75;;;13.27;;
45893;SDS011;31603;51.148;16.932;2023-04-07T11:29:55;21.33;;;12.60;;
45893;SDS011;31603;51.148;16.932;2023-04-07T11:32:23;21.52;;;14.13;;
45893;SDS011;31603;51.148;16.932;2023-04-07T11:34:51;23.17;;;14.23;;
45893;SDS011;31603;51.148;16.932;2023-04-07T11:37:18;26.10;;;15.00;;
45893;SDS011;31603;51.148;16.932;2023-04-07T11:39:51;26.35;;;15.13;;
45893;SDS011;31603;51.148;16.932;2023-04-07T11:42:31;22.67;;;13.90;;
45893;SDS011;31603;51.148;16.932;2023-04-07T11:44:59;21.02;;;12.38;;
45893;SDS011;31603;51.148;16.932;2023-04-07T11:47:32;24.58;;;13.98;;
45893;SDS011;31603;51.148;16.932;2023-04-07T11:49:59;21.98;;;13.60;;
45893;SDS011;31603;51.148;16.932;2023-04-07T11:52:25;23.85;;;13.68;;
45893;SDS011;31603;51.148;16.932;2023-04-07T11:54:53;25.52;;;15.27;;
45893;SDS011;31603;51.148;16.932;2023-04-07T11:57:36;24.10;;;14.15;;
45893;SDS011;31603;51.148;16.932;2023-04-07T12:00:07;19.67;;;12.40;;
45893;SDS011;31603;51.148;16.932;2023-04-07T12:02:34;22.92;;;11.90;;
45893;SDS011;31603;51.148;16.932;2023-04-07T12:05:01;20.67;;;11.38;;
45893;SDS011;31603;51.148;16.932;2023-04-07T12:07:28;20.05;;;11.50;;
45893;SDS011;31603;51.148;16.932;2023-04-07T12:09:54;24.70;;;13.13;;
45893;SDS011;31603;51.148;16.932;2023-04-07T12:12:24;21.95;;;12.75;;
45893;SDS011;31603;51.148;16.932;2023-04-07T12:14:52;18.75;;;10.93;;
45893;SDS011;31603;51.148;16.932;2023-04-07T12:17:23;16.17;;;9.50;;
45893;SDS011;31603;51.148;16.932;2023-04-07T12:19:50;19.30;;;11.43;;
45893;SDS011;31603;51.148;16.932;2023-04-07T12:22:23;17.05;;;10.45;;
45893;SDS011;31603;51.148;16.932;2023-04-07T12:24:58;15.93;;;9.55;;
45893;SDS011;31603;51.148;16.932;2023-04-07T12:27:41;15.75;;;10.18;;
45893;SDS011;31603;51.148;16.932;2023-04-07T12:30:07;16.67;;;10.13;;
45893;SDS011;31603;51.148;16.932;2023-04-07T12:32:35;18.65;;;10.60;;
45893;SDS011;31603;51.148;16.932;2023-04-07T12:35:02;18.23;;;10.27;;
45893;SDS011;31603;51.148;16.932;2023-04-07T12:37:29;18.45;;;9.82;;
45893;SDS011;31603;51.148;16.932;2023-04-07T12:39:56;18.67;;;10.45;;
45893;SDS011;31603;51.148;16.932;2023-04-07T12:42:22;18.73;;;11.57;;
45893;SDS011;31603;51.148;16.932;2023-04-07T12:44:49;17.42;;;9.65;;
45893;SDS011;31603;51.148;16.932;2023-04-07T12:47:15;22.50;;;12.52;;
45893;SDS011;31603;51.148;16.932;2023-04-07T12:49:43;18.00;;;10.80;;
45893;SDS011;31603;51.148;16.932;2023-04-07T12:52:11;20.83;;;12.02;;
45893;SDS011;31603;51.148;16.932;2023-04-07T12:54:37;20.45;;;10.93;;
45893;SDS011;31603;51.148;16.932;2023-04-07T12:57:04;18.33;;;11.07;;
45893;SDS011;31603;51.148;16.932;2023-04-07T12:59:30;16.35;;;10.57;;
45893;SDS011;31603;51.148;16.932;2023-04-07T13:01:56;18.42;;;11.38;;
45893;SDS011;31603;51.148;16.932;2023-04-07T13:04:24;16.75;;;10.60;;
45893;SDS011;31603;51.148;16.932;2023-04-07T13:06:55;16.15;;;10.50;;
45893;SDS011;31603;51.148;16.932;2023-04-07T13:09:21;16.10;;;10.15;;
45893;SDS011;31603;51.148;16.932;2023-04-07T13:11:48;19.90;;;12.23;;
45893;SDS011;31603;51.148;16.932;2023-04-07T13:14:14;19.73;;;11.90;;
45893;SDS011;31603;51.148;16.932;2023-04-07T13:16:41;20.35;;;13.10;;
45893;SDS011;31603;51.148;16.932;2023-04-07T13:19:08;18.30;;;12.05;;
45893;SDS011;31603;51.148;16.932;2023-04-07T13:21:34;17.90;;;11.73;;
45893;SDS011;31603;51.148;16.932;2023-04-07T13:24:02;17.38;;;10.68;;
45893;SDS011;31603;51.148;16.932;2023-04-07T13:26:28;19.75;;;12.35;;
45893;SDS011;31603;51.148;16.932;2023-04-07T13:28:55;22.98;;;12.80;;
45893;SDS011;31603;51.148;16.932;2023-04-07T13:31:21;24.92;;;13.93;;
45893;SDS011;31603;51.148;16.932;2023-04-07T13:33:48;22.75;;;13.27;;
45893;SDS011;31603;51.148;16.932;2023-04-07T13:36:14;20.98;;;12.27;;
45893;SDS011;31603;51.148;16.932;2023-04-07T13:38:40;17.33;;;10.60;;
45893;SDS011;31603;51.148;16.932;2023-04-07T13:41:09;16.55;;;10.13;;
45893;SDS011;31603;51.148;16.932;2023-04-07T13:43:36;16.85;;;10.35;;
45893;SDS011;31603;51.148;16.932;2023-04-07T13:46:02;17.73;;;10.98;;
45893;SDS011;31603;51.148;16.932;2023-04-07T13:48:28;18.23;;;9.50;;
45893;SDS011;31603;51.148;16.932;2023-04-07T13:50:56;19.58;;;12.50;;
45893;SDS011;31603;51.148;16.932;2023-04-07T13:53:24;20.80;;;13.18;;
45893;SDS011;31603;51.148;16.932;2023-04-07T13:55:50;24.85;;;12.82;;
45893;SDS011;31603;51.148;16.932;2023-04-07T13:58:19;23.45;;;14.27;;
45893;SDS011;31603;51.148;16.932;2023-04-07T14:00:46;26.65;;;15.18;;
45893;SDS011;31603;51.148;16.932;2023-04-07T14:03:13;22.95;;;13.27;;
45893;SDS011;31603;51.148;16.932;2023-04-07T14:05:39;20.17;;;12.30;;
45893;SDS011;31603;51.148;16.932;2023-04-07T14:08:06;28.98;;;16.50;;
45893;SDS011;31603;51.148;16.932;2023-04-07T14:10:32;21.38;;;11.98;;
45893;SDS011;31603;51.148;16.932;2023-04-07T14:13:00;27.02;;;14.18;;
45893;SDS011;31603;51.148;16.932;2023-04-07T14:15:28;25.77;;;14.13;;
45893;SDS011;31603;51.148;16.932;2023-04-07T14:17:54;35.55;;;19.25;;
45893;SDS011;31603;51.148;16.932;2023-04-07T14:20:20;22.02;;;13.13;;
45893;SDS011;31603;51.148;16.932;2023-04-07T14:22:47;21.65;;;13.43;;
45893;SDS011;31603;51.148;16.932;2023-04-07T14:25:13;20.83;;;11.15;;
45893;SDS011;31603;51.148;16.932;2023-04-07T14:27:39;23.15;;;13.30;;
45893;SDS011;31603;51.148;16.932;2023-04-07T14:30:06;32.35;;;16.20;;
45893;SDS011;31603;51.148;16.932;2023-04-07T14:32:34;27.73;;;15.80;;
45893;SDS011;31603;51.148;16.932;2023-04-07T14:35:01;19.55;;;12.13;;